createdAt,value
2019-03-16T00:03:11.346Z,7.59
2019-03-16T00:05:39.818Z,7.55
2019-03-16T00:08:07.717Z,7.52
2019-03-16T00:10:36.036Z,7.52
2019-03-16T00:13:23.708Z,7.45
2019-03-16T00:15:52.231Z,7.42
2019-03-16T00:18:32.659Z,7.40
2019-03-16T00:21:01.441Z,7.41
2019-03-16T00:23:29.446Z,7.38
2019-03-16T00:25:57.745Z,7.38
2019-03-16T00:28:26.011Z,7.36
2019-03-16T00:30:54.276Z,7.35
2019-03-16T00:33:22.996Z,7.36
2019-03-16T00:36:10.700Z,7.35
2019-03-16T00:38:58.421Z,7.28
2019-03-16T00:41:26.706Z,7.25
2019-03-16T00:43:55.307Z,7.28
2019-03-16T00:49:23.449Z,7.25
2019-03-16T00:51:52.104Z,7.26
2019-03-16T00:54:20.375Z,7.28
2019-03-16T00:56:48.978Z,7.30
2019-03-16T00:59:17.194Z,7.25
2019-03-16T01:01:45.091Z,7.26
2019-03-16T01:04:32.013Z,7.26
2019-03-16T01:07:00.031Z,7.22
2019-03-16T01:09:59.630Z,7.26
2019-03-16T01:12:28.360Z,7.23
2019-03-16T01:14:55.951Z,7.20
2019-03-16T01:17:24.490Z,7.24
2019-03-16T01:22:54.228Z,7.26
2019-03-16T01:28:25.062Z,7.33
2019-03-16T01:31:12.733Z,7.30
2019-03-16T01:33:40.881Z,7.32
2019-03-16T01:36:09.098Z,7.23
2019-03-16T01:39:17.758Z,7.19
2019-03-16T01:44:26.710Z,7.27
2019-03-16T01:49:56.256Z,7.34
2019-03-16T01:52:24.153Z,7.36
2019-03-16T01:54:52.492Z,7.32
2019-03-16T01:57:21.202Z,7.37
2019-03-16T01:59:49.757Z,7.37
2019-03-16T02:02:17.649Z,7.37
2019-03-16T02:04:46.536Z,7.32
2019-03-16T02:13:17.693Z,7.39
2019-03-16T02:15:46.322Z,7.45
2019-03-16T02:18:14.804Z,7.45
2019-03-16T02:20:43.383Z,7.43
2019-03-16T02:23:11.740Z,7.44
2019-03-16T02:25:39.622Z,7.45
2019-03-16T02:28:07.452Z,7.42
2019-03-16T02:30:36.087Z,7.38
2019-03-16T02:33:12.773Z,7.43
2019-03-16T02:35:40.752Z,7.40
2019-03-16T02:38:09.162Z,7.44
2019-03-16T02:40:37.414Z,7.44
2019-03-16T02:46:07.331Z,7.45
2019-03-16T02:48:35.614Z,7.41
2019-03-16T02:51:04.131Z,7.41
2019-03-16T02:53:32.429Z,7.36
2019-03-16T02:56:01.061Z,7.38
2019-03-16T02:58:29.752Z,7.40
2019-03-16T03:00:58.072Z,7.40
2019-03-16T03:03:29.842Z,7.37
2019-03-16T03:05:56.859Z,7.39
2019-03-16T03:08:25.436Z,7.37
2019-03-16T03:10:53.825Z,7.35
2019-03-16T03:13:22.104Z,7.37
2019-03-16T03:15:52.586Z,7.38
2019-03-16T03:18:20.839Z,7.45
2019-03-16T03:20:49.112Z,7.47
2019-03-16T03:23:17.318Z,7.45
2019-03-16T03:25:46.075Z,7.41
2019-03-16T03:28:14.464Z,7.42
2019-03-16T03:30:43.211Z,7.48
2019-03-16T03:33:11.219Z,7.52
2019-03-16T03:35:39.612Z,7.52
2019-03-16T03:38:07.479Z,7.55
2019-03-16T03:40:35.009Z,7.59
2019-03-16T03:43:03.374Z,7.60
2019-03-16T03:45:32.022Z,7.61
2019-03-16T03:48:00.315Z,7.60
2019-03-16T03:50:28.922Z,7.58
2019-03-16T03:52:56.432Z,7.57
2019-03-16T03:55:24.631Z,7.58
2019-03-16T03:57:52.952Z,7.57
2019-03-16T04:00:21.200Z,7.60
2019-03-16T04:02:49.088Z,7.55
2019-03-16T04:05:18.408Z,7.59
2019-03-16T04:07:47.107Z,7.59
2019-03-16T04:10:15.354Z,7.59
2019-03-16T04:12:44.078Z,7.58
2019-03-16T04:18:35.061Z,7.57
2019-03-16T04:21:15.481Z,7.63
2019-03-16T04:23:43.756Z,7.68
2019-03-16T04:26:11.574Z,7.61
2019-03-16T04:28:40.203Z,7.56
2019-03-16T04:31:08.650Z,7.59
2019-03-16T04:33:36.936Z,7.55
2019-03-16T04:36:05.641Z,7.64
2019-03-16T04:38:33.996Z,7.65
2019-03-16T04:41:02.593Z,7.62
2019-03-16T04:43:30.537Z,7.60
2019-03-16T04:45:59.259Z,7.63
2019-03-16T04:48:27.784Z,7.59
2019-03-16T04:50:56.118Z,7.63
2019-03-16T04:53:24.711Z,7.57
2019-03-16T04:55:53.546Z,7.55
2019-03-16T04:58:21.481Z,7.52
2019-03-16T05:00:49.982Z,7.58
2019-03-16T05:03:18.634Z,7.49
2019-03-16T05:05:46.967Z,7.52
2019-03-16T05:08:15.631Z,7.52
2019-03-16T05:11:02.863Z,7.55
2019-03-16T05:14:01.877Z,7.50
2019-03-16T05:16:30.208Z,7.50
2019-03-16T05:18:58.763Z,7.52
2019-03-16T05:21:27.123Z,7.52
2019-03-16T05:23:55.360Z,7.58
2019-03-16T05:26:23.835Z,7.57
2019-03-16T05:28:52.026Z,7.54
2019-03-16T05:31:19.918Z,7.54
2019-03-16T05:33:48.230Z,7.57
2019-03-16T05:36:16.231Z,7.54
2019-03-16T05:39:24.904Z,7.52
2019-03-16T05:44:53.869Z,7.49
2019-03-16T05:50:23.403Z,7.53
2019-03-16T05:56:00.989Z,7.53
2019-03-16T06:01:57.517Z,7.62
2019-03-16T06:07:34.777Z,7.71
2019-03-16T06:10:03.268Z,7.68
2019-03-16T06:12:31.581Z,7.65
2019-03-16T06:14:59.464Z,7.64
2019-03-16T06:17:27.983Z,7.67
2019-03-16T06:19:56.222Z,7.70
2019-03-16T06:22:24.923Z,7.73
2019-03-16T06:24:55.142Z,7.73
2019-03-16T06:27:23.415Z,7.75
2019-03-16T06:29:51.601Z,7.77
2019-03-16T06:38:22.662Z,7.70
2019-03-16T06:40:51.312Z,7.75
2019-03-16T06:49:21.074Z,7.70
2019-03-16T06:51:49.781Z,7.73
2019-03-16T06:54:17.988Z,7.78
2019-03-16T06:56:46.222Z,7.76
2019-03-16T06:59:14.991Z,7.82
2019-03-16T07:01:43.601Z,7.83
2019-03-16T07:04:12.011Z,7.83
2019-03-16T07:06:40.476Z,7.84
2019-03-16T07:09:09.094Z,7.80
2019-03-16T07:11:38.187Z,7.79
2019-03-16T07:14:06.451Z,7.84
2019-03-16T07:16:34.983Z,7.85
2019-03-16T07:19:02.976Z,7.83
2019-03-16T07:21:31.311Z,7.84
2019-03-16T07:24:00.144Z,7.82
2019-03-16T07:27:08.503Z,7.75
2019-03-16T07:29:56.122Z,7.76
2019-03-16T07:32:24.831Z,7.74
2019-03-16T07:34:53.102Z,7.76
2019-03-16T07:37:21.631Z,7.72
2019-03-16T07:39:50.586Z,7.71
2019-03-16T07:42:59.165Z,7.77
2019-03-16T07:45:27.986Z,7.74
2019-03-16T07:47:56.421Z,7.67
2019-03-16T07:50:24.848Z,7.67
2019-03-16T07:52:53.222Z,7.70
2019-03-16T07:55:21.507Z,7.74
2019-03-16T07:57:50.109Z,7.76
2019-03-16T08:00:18.673Z,7.76
2019-03-16T08:02:47.370Z,7.77
2019-03-16T08:05:19.099Z,7.78
2019-03-16T08:07:52.521Z,7.75
2019-03-16T08:10:40.172Z,7.69
2019-03-16T08:13:08.427Z,7.68
2019-03-16T08:15:36.333Z,7.63
2019-03-16T08:18:07.703Z,7.61
2019-03-16T08:20:35.434Z,7.56
2019-03-16T08:23:03.026Z,7.59
2019-03-16T08:25:31.171Z,7.57
2019-03-16T08:27:59.480Z,7.55
2019-03-16T08:30:27.587Z,7.50
2019-03-16T08:32:56.160Z,7.43
2019-03-16T08:35:24.943Z,7.39
2019-03-16T08:37:53.281Z,7.28
2019-03-16T08:40:21.579Z,7.23
2019-03-16T08:42:51.443Z,7.13
2019-03-16T08:45:26.213Z,7.06
2019-03-16T08:47:54.666Z,7.05
2019-03-16T08:50:23.418Z,7.02
2019-03-16T08:52:53.671Z,6.97
2019-03-16T08:58:46.994Z,6.89
2019-03-16T09:01:55.194Z,6.90
2019-03-16T09:04:54.493Z,6.90
2019-03-16T09:07:34.457Z,6.89
2019-03-16T09:10:33.622Z,6.89
2019-03-16T09:13:13.774Z,6.87
2019-03-16T09:15:42.568Z,6.95
2019-03-16T09:18:50.873Z,7.04
2019-03-16T09:24:39.118Z,7.21
2019-03-16T09:27:07.013Z,7.20
2019-03-16T09:29:35.622Z,7.31
2019-03-16T09:32:04.174Z,7.35
2019-03-16T09:40:54.476Z,7.45
2019-03-16T09:43:22.719Z,7.44
2019-03-16T09:45:51.406Z,7.56
2019-03-16T09:49:00.047Z,7.64
2019-03-16T09:54:30.630Z,8.65
2019-03-16T10:03:03.295Z,10.67
2019-03-16T10:05:31.611Z,10.25
2019-03-16T10:11:09.343Z,9.76
2019-03-16T10:13:37.317Z,10.10
2019-03-16T10:16:05.501Z,9.83
2019-03-16T10:19:14.101Z,9.60
2019-03-16T10:21:43.014Z,9.34
2019-03-16T10:24:11.797Z,9.56
2019-03-16T10:26:40.258Z,9.78
2019-03-16T10:29:09.340Z,9.48
2019-03-16T10:31:38.003Z,9.53
2019-03-16T10:34:05.550Z,9.55
2019-03-16T10:39:54.804Z,9.58
2019-03-16T10:42:44.050Z,9.52
2019-03-16T10:45:12.334Z,9.69
2019-03-16T10:47:40.663Z,9.83
2019-03-16T10:56:33.587Z,9.48
2019-03-16T10:59:01.861Z,9.45
2019-03-16T11:01:30.440Z,9.23
2019-03-16T11:07:40.992Z,9.40
2019-03-16T11:10:21.281Z,9.66
2019-03-16T11:12:49.886Z,9.68
2019-03-16T11:15:29.650Z,9.68
2019-03-16T11:17:57.966Z,9.75
2019-03-16T11:21:06.576Z,9.92
2019-03-16T11:23:34.863Z,10.10
2019-03-16T11:26:02.929Z,10.38
2019-03-16T11:28:49.834Z,10.46
2019-03-16T11:31:18.179Z,10.78
2019-03-16T11:33:48.398Z,10.96
2019-03-16T11:36:23.822Z,11.02
2019-03-16T11:38:52.072Z,11.06
2019-03-16T11:41:20.572Z,10.83
2019-03-16T11:43:49.150Z,10.72
2019-03-16T11:46:17.434Z,10.75
2019-03-16T11:48:45.709Z,11.31
2019-03-16T11:51:14.273Z,11.74
2019-03-16T11:53:42.491Z,11.84
2019-03-16T11:56:17.876Z,11.82
2019-03-16T11:58:48.263Z,11.52
2019-03-16T12:01:35.584Z,11.52
2019-03-16T12:04:03.439Z,11.20
2019-03-16T12:06:32.047Z,11.10
2019-03-16T12:09:00.539Z,11.70
2019-03-16T12:11:28.912Z,12.15
2019-03-16T12:13:57.595Z,12.79
2019-03-16T12:16:26.287Z,12.78
2019-03-16T12:18:54.808Z,13.17
2019-03-16T12:21:23.079Z,13.63
2019-03-16T12:23:51.043Z,13.53
2019-03-16T12:26:20.314Z,13.34
2019-03-16T12:28:59.308Z,13.44
2019-03-16T12:31:27.544Z,13.18
2019-03-16T12:33:56.565Z,12.98
2019-03-16T12:36:24.523Z,13.25
2019-03-16T12:38:53.549Z,13.52
2019-03-16T12:41:22.219Z,13.84
2019-03-16T12:43:51.129Z,13.83
2019-03-16T12:46:19.587Z,13.60
2019-03-16T12:48:47.793Z,14.24
2019-03-16T12:51:16.479Z,14.20
2019-03-16T12:53:44.339Z,13.85
2019-03-16T12:56:12.621Z,13.66
2019-03-16T12:58:40.962Z,14.16
2019-03-16T13:01:12.473Z,14.69
2019-03-16T13:03:46.266Z,14.98
2019-03-16T13:06:14.924Z,15.42
2019-03-16T13:08:43.659Z,15.28
2019-03-16T13:11:11.643Z,14.81
2019-03-16T13:13:39.914Z,15.12
2019-03-16T13:16:08.405Z,15.96
2019-03-16T13:18:36.978Z,17.11
2019-03-16T13:21:05.266Z,17.16
2019-03-16T13:23:33.943Z,16.47
2019-03-16T13:26:01.944Z,16.43
2019-03-16T13:28:29.802Z,15.56
2019-03-16T13:30:58.095Z,15.67
2019-03-16T13:33:26.966Z,15.94
2019-03-16T13:35:54.549Z,15.81
2019-03-16T13:38:23.195Z,15.81
2019-03-16T13:40:51.611Z,15.75
2019-03-16T13:43:19.640Z,16.27
2019-03-16T13:45:48.310Z,16.88
2019-03-16T13:48:16.658Z,17.17
2019-03-16T13:50:45.260Z,17.00
2019-03-16T13:53:13.879Z,16.47
2019-03-16T13:55:42.158Z,17.42
2019-03-16T13:58:10.999Z,17.92
2019-03-16T14:00:38.903Z,18.42
2019-03-16T14:03:15.161Z,18.90
2019-03-16T14:05:43.033Z,19.62
2019-03-16T14:08:11.247Z,20.43
2019-03-16T14:10:40.308Z,20.35
2019-03-16T14:13:27.253Z,19.18
2019-03-16T14:15:56.009Z,18.62
2019-03-16T14:18:23.939Z,18.10
2019-03-16T14:24:02.328Z,19.69
2019-03-16T14:26:30.924Z,19.84
2019-03-16T14:28:59.201Z,20.30
2019-03-16T14:31:27.549Z,21.04
2019-03-16T14:33:55.557Z,21.41
2019-03-16T14:36:24.239Z,21.52
2019-03-16T14:38:52.944Z,21.85
2019-03-16T14:41:21.411Z,22.62
2019-03-16T14:43:57.878Z,21.59
2019-03-16T14:46:26.674Z,21.21
2019-03-16T14:48:55.280Z,20.83
2019-03-16T14:51:24.818Z,20.20
2019-03-16T14:53:59.947Z,20.70
2019-03-16T14:56:40.557Z,20.87
2019-03-16T14:59:08.852Z,19.32
2019-03-16T15:01:36.741Z,20.13
2019-03-16T15:04:04.772Z,21.38
2019-03-16T15:06:33.484Z,22.30
2019-03-16T15:09:01.702Z,21.66
2019-03-16T15:11:29.673Z,20.46
2019-03-16T15:14:20.967Z,17.50
2019-03-16T15:16:39.740Z,17.50
2019-03-16T15:19:07.804Z,16.73
2019-03-16T15:21:35.769Z,16.71
2019-03-16T15:24:04.065Z,16.98
2019-03-16T15:26:32.446Z,16.99
2019-03-16T15:29:01.024Z,16.73
2019-03-16T15:31:29.301Z,16.72
2019-03-16T15:33:57.178Z,16.64
2019-03-16T15:36:25.581Z,17.74
2019-03-16T15:38:53.419Z,19.30
2019-03-16T15:41:21.715Z,19.81
2019-03-16T15:43:50.034Z,19.59
2019-03-16T15:46:18.650Z,19.05
2019-03-16T15:48:46.970Z,18.65
2019-03-16T15:51:34.306Z,22.48
2019-03-16T15:54:02.769Z,22.48
2019-03-16T15:56:30.654Z,22.46
2019-03-16T15:58:59.447Z,21.55
2019-03-16T16:01:46.369Z,19.29
2019-03-16T16:04:15.113Z,19.29
2019-03-16T16:06:43.528Z,18.24
2019-03-16T16:09:12.150Z,16.72
2019-03-16T16:11:40.308Z,17.16
2019-03-16T16:14:08.570Z,17.20
2019-03-16T16:16:37.275Z,16.41
2019-03-16T16:19:05.800Z,15.33
2019-03-16T16:21:34.270Z,15.23
2019-03-16T16:24:02.411Z,15.63
2019-03-16T16:26:30.730Z,15.55
2019-03-16T16:28:59.405Z,14.77
2019-03-16T16:31:28.128Z,14.14
2019-03-16T16:33:56.831Z,13.42
2019-03-16T16:36:25.496Z,12.90
2019-03-16T16:38:54.183Z,12.68
2019-03-16T16:41:25.363Z,12.34
2019-03-16T16:43:52.643Z,12.13
2019-03-16T16:46:20.889Z,11.95
2019-03-16T16:48:49.654Z,11.80
2019-03-16T16:51:18.238Z,11.66
2019-03-16T16:53:46.905Z,11.52
2019-03-16T16:56:15.238Z,11.47
2019-03-16T16:58:43.510Z,11.39
2019-03-16T17:01:11.801Z,11.23
2019-03-16T17:03:40.008Z,11.08
2019-03-16T17:06:08.664Z,10.85
2019-03-16T17:08:37.179Z,10.64
2019-03-16T17:11:05.809Z,10.50
2019-03-16T17:13:33.658Z,10.35
2019-03-16T17:16:02.076Z,10.16
2019-03-16T17:18:30.456Z,9.92
2019-03-16T17:20:58.774Z,9.73
2019-03-16T17:23:26.709Z,9.68
2019-03-16T17:25:54.606Z,9.48
2019-03-16T17:28:23.147Z,9.28
2019-03-16T17:30:51.368Z,9.09
2019-03-16T17:33:19.635Z,8.97
2019-03-16T17:35:48.231Z,8.77
2019-03-16T17:38:16.861Z,8.53
2019-03-16T17:40:45.594Z,8.27
2019-03-16T17:43:13.932Z,8.06
2019-03-16T17:45:42.196Z,7.88
2019-03-16T17:48:10.890Z,7.78
2019-03-16T17:50:39.524Z,7.64
2019-03-16T17:53:07.908Z,7.50
2019-03-16T17:55:36.237Z,7.34
2019-03-16T17:58:04.873Z,7.17
2019-03-16T18:00:33.572Z,7.03
2019-03-16T18:03:01.849Z,6.88
2019-03-16T18:05:30.391Z,6.76
2019-03-16T18:07:58.729Z,6.65
2019-03-16T18:10:27.468Z,6.52
2019-03-16T18:12:56.068Z,6.44
2019-03-16T18:15:23.968Z,6.37
2019-03-16T18:17:52.304Z,6.27
2019-03-16T18:20:20.969Z,6.19
2019-03-16T18:22:49.673Z,6.12
2019-03-16T18:25:17.283Z,6.01
2019-03-16T18:27:45.835Z,5.93
2019-03-16T18:30:14.293Z,5.81
2019-03-16T18:32:42.105Z,5.70
2019-03-16T18:35:10.123Z,5.64
2019-03-16T18:37:38.377Z,5.67
2019-03-16T18:40:07.953Z,5.60
2019-03-16T18:42:36.570Z,5.59
2019-03-16T18:45:05.057Z,5.58
2019-03-16T18:47:33.328Z,5.53
2019-03-16T18:50:01.660Z,5.65
2019-03-16T18:52:29.886Z,5.64
2019-03-16T18:54:58.160Z,5.67
2019-03-16T18:57:26.896Z,5.57
2019-03-16T18:59:55.114Z,5.51
2019-03-16T19:02:23.432Z,5.41
2019-03-16T19:04:52.029Z,5.29
2019-03-16T19:07:20.549Z,5.22
2019-03-16T19:09:48.940Z,5.15
2019-03-16T19:12:17.174Z,5.09
2019-03-16T19:14:45.394Z,5.05
2019-03-16T19:17:13.739Z,5.06
2019-03-16T19:19:41.610Z,5.07
2019-03-16T19:22:11.612Z,5.08
2019-03-16T19:24:49.626Z,5.16
2019-03-16T19:27:19.277Z,5.29
2019-03-16T19:29:54.155Z,5.44
2019-03-16T19:32:33.143Z,5.55
2019-03-16T19:34:58.530Z,5.74
2019-03-16T19:37:27.197Z,5.91
2019-03-16T19:39:55.790Z,6.08
2019-03-16T19:42:24.088Z,6.12
2019-03-16T19:44:52.804Z,6.21
2019-03-16T19:47:21.071Z,6.42
2019-03-16T19:50:08.865Z,6.50
2019-03-16T19:52:37.077Z,6.60
2019-03-16T19:55:45.425Z,6.62
2019-03-16T19:58:12.984Z,6.68
2019-03-16T20:00:41.749Z,6.67
2019-03-16T20:03:21.733Z,6.69
2019-03-16T20:09:02.811Z,6.74
2019-03-16T20:11:42.998Z,6.72
2019-03-16T20:14:11.295Z,6.71
2019-03-16T20:16:58.918Z,6.73
2019-03-16T20:19:47.055Z,6.68
2019-03-16T20:25:03.148Z,6.68
2019-03-16T20:27:31.532Z,6.72
2019-03-16T20:30:00.509Z,6.83
2019-03-16T20:32:29.768Z,6.95
2019-03-16T20:34:58.331Z,6.93
2019-03-16T20:37:27.137Z,6.98
2019-03-16T20:39:55.405Z,7.01
2019-03-16T20:42:24.023Z,7.18
2019-03-16T20:44:52.482Z,7.19
2019-03-16T20:47:21.190Z,7.15
2019-03-16T20:49:50.009Z,7.17
2019-03-16T20:52:17.858Z,7.22
2019-03-16T20:54:46.241Z,7.15
2019-03-16T20:57:14.935Z,7.09
2019-03-16T20:59:43.700Z,6.96
2019-03-16T21:02:11.592Z,6.92
2019-03-16T21:04:40.201Z,6.94
2019-03-16T21:07:27.769Z,6.96
2019-03-16T21:10:08.502Z,6.98
2019-03-16T21:15:45.445Z,7.06
2019-03-16T21:18:14.087Z,7.16
2019-03-16T21:23:43.958Z,7.21
2019-03-16T21:26:31.229Z,7.14
2019-03-16T21:28:59.129Z,7.05
2019-03-16T21:31:27.653Z,6.94
2019-03-16T21:33:56.020Z,6.79
2019-03-16T21:36:26.259Z,6.81
2019-03-16T21:38:55.886Z,6.73
2019-03-16T21:41:24.551Z,6.78
2019-03-16T21:43:52.926Z,6.81
2019-03-16T21:46:20.593Z,6.85
2019-03-16T21:48:48.970Z,6.73
2019-03-16T21:51:17.276Z,6.45
2019-03-16T21:53:45.305Z,6.36
2019-03-16T21:56:13.629Z,6.22
2019-03-16T21:58:41.110Z,6.23
2019-03-16T22:01:09.831Z,6.35
2019-03-16T22:03:41.905Z,6.40
2019-03-16T22:06:14.187Z,6.38
2019-03-16T22:08:43.448Z,6.30
2019-03-16T22:11:12.328Z,6.12
2019-03-16T22:13:40.256Z,6.00
2019-03-16T22:16:11.718Z,6.05
2019-03-16T22:18:40.201Z,5.95
2019-03-16T22:21:08.436Z,5.83
2019-03-16T22:23:37.118Z,5.68
2019-03-16T22:26:05.287Z,5.52
2019-03-16T22:28:33.954Z,5.33
2019-03-16T22:31:01.799Z,5.09
2019-03-16T22:33:30.237Z,4.86
2019-03-16T22:35:58.836Z,4.66
2019-03-16T22:38:46.582Z,4.46
2019-03-16T22:41:15.359Z,4.23
2019-03-16T22:43:44.112Z,4.05
2019-03-16T22:46:12.024Z,3.89
2019-03-16T22:48:39.904Z,3.84
2019-03-16T22:51:09.060Z,3.90
2019-03-16T22:53:37.657Z,3.99
2019-03-16T22:56:06.486Z,4.11
2019-03-16T22:58:35.215Z,4.15
2019-03-16T23:01:03.673Z,4.25
2019-03-16T23:03:32.352Z,4.39
2019-03-16T23:06:01.015Z,4.52
2019-03-16T23:08:29.340Z,4.62
2019-03-16T23:10:57.604Z,4.55
2019-03-16T23:13:26.272Z,4.46
2019-03-16T23:15:54.302Z,4.40
2019-03-16T23:18:23.251Z,4.33
2019-03-16T23:20:52.049Z,4.26
2019-03-16T23:23:19.861Z,4.19
2019-03-16T23:25:47.821Z,4.06
2019-03-16T23:28:17.011Z,4.07
2019-03-16T23:30:46.179Z,4.30
2019-03-16T23:33:14.780Z,4.56
2019-03-16T23:35:43.980Z,4.83
2019-03-16T23:38:12.692Z,4.99
2019-03-16T23:40:41.337Z,5.29
2019-03-16T23:43:10.353Z,5.37
2019-03-16T23:45:38.963Z,5.42
2019-03-16T23:48:07.119Z,5.58
2019-03-16T23:50:35.435Z,5.44
2019-03-16T23:53:02.864Z,5.27
2019-03-16T23:55:30.846Z,5.05
